Xinxiang, China
Current Conditions -  °F | °C
As of 2:00 PM on Saturday 25 Oct 2014 (Local Time) from ZHCC Reporting Station
Haze Haze  
Wind Chill: 77°   Ceiling: Unl
Heat Index: 79°   Visibility: 2.5mi
Dew Point: 55°   Wind: 7mph
Humidity: 47%   Direction: 190°S
Pressure: 29.88"   Gusts: NA
Location:  35.32°N, 113.87°E
Report Text: ZHCC 250600Z 19003MPS 150V220 4000 HZ NSC 25/13 Q1012 NOSIG
Loading
Personal Weather Stations






























Interactive Weather Map
Tropical Storm Tracking
New forecast layout! Learn more

10-Day Weather Forecast

Advertisements
Track Severe Weather on mobile